Decoded Metar for UUWW (MOSCOW/VNUKOVO in RUSSIA) (IATA:VKO) | Meteo·Mobile Aviation Weather
aviador You're here:

UUWW Decoded Metar

MOSCOW/VNUKOVO in RUSSIA
Report Time2019-02-17 05:00:00
UTC Time2019-02-17 05:26:42
Flight Rules vfr VFR
Wind260° at 17 kt
W.Decomp.*RWY 24: 16.7 kt HW 3.0 kt RCW
RWY 19: 8.5 kt HW 14.7 kt RCW
W.Rank260° ranks 8
Current wind is above 260° avg. (9.2)
Visibility9999 m
Phenomena:N/A
Clouds:N/A
Expected CloudBase > 1,600 ft AGL from Temp-Dew spread
CeilingNone
Temp02°C (ISA -12)
Dew Point-2°C (75% RH)
AAT-6.4°C
QNH0998 hPa
Density Alt-164 ft
Elevation666 ft
Report Wrong Elevation
Raw Report
METAR UUWW 170500Z 26009MPS CAVOK 02/M02 Q0998 R24/290050 NOSIG=

Extra information for UUWW:More info

Metar Taf Metar & Taf Last 4 Metars F.Rules Stats Wind Profile Meteogram Temp Stats Airport Information Weather charts Add Link Nearby VenuesMetar ALERT Operation Metar Decoded Social comments